Time;durP1;ratioP1;P1;durP2;ratioP2;P2;SDS_P1;SDS_P2;PMS_P1;PMS_P2;Temp;Humidity;BMP_temperature;BMP_pressure;BME280_temperature;BME280_humidity;BME280_pressure;Samples;Min_cycle;Max_cycle;Signal;HPM_P1;HPM_P2
2022/01/06 00:01:01;;;;;;;9.88;6.10;;;;;;;;;;5017604;28;20026;-92
2022/01/06 00:03:27;;;;;;;8.95;5.00;;;;;;;;;;5016451;28;20125;-95
2022/01/06 00:05:54;;;;;;;8.45;5.05;;;;;;;;;;5017862;28;20038;-94
2022/01/06 00:08:20;;;;;;;10.48;5.78;;;;;;;;;;5020345;28;20412;-94
2022/01/06 00:10:48;;;;;;;7.90;5.15;;;;;;;;;;5021180;28;20108;-95
2022/01/06 00:13:19;;;;;;;7.93;5.60;;;;;;;;;;5021460;28;20026;-93
2022/01/06 00:24:09;;;;;;;4.97;3.40;;;;;;;;;;5020957;28;20049;-95
2022/01/06 00:26:43;;;;;;;3.78;2.88;;;;;;;;;;5021087;28;20034;-96
2022/01/06 00:29:09;;;;;;;4.30;2.67;;;;;;;;;;5021016;28;20018;-95
2022/01/06 00:31:35;;;;;;;4.93;3.40;;;;;;;;;;5020787;28;20324;-92
2022/01/06 00:34:01;;;;;;;7.28;4.78;;;;;;;;;;5020797;28;20050;-92
2022/01/06 00:36:28;;;;;;;10.60;6.47;;;;;;;;;;5019671;28;20052;-95
2022/01/06 00:38:57;;;;;;;12.27;6.07;;;;;;;;;;5021234;28;20026;-91
2022/01/06 00:41:23;;;;;;;7.53;4.53;;;;;;;;;;5021851;28;20026;-95
2022/01/06 00:43:49;;;;;;;6.53;4.03;;;;;;;;;;5021476;28;20040;-93
2022/01/06 00:46:15;;;;;;;4.72;2.47;;;;;;;;;;5020608;28;20109;-91
2022/01/06 00:48:41;;;;;;;3.30;2.28;;;;;;;;;;5019993;28;20029;-93
2022/01/06 00:51:09;;;;;;;5.07;2.30;;;;;;;;;;5020765;28;20120;-92
2022/01/06 00:53:40;;;;;;;4.22;2.10;;;;;;;;;;5020702;28;20057;-91
2022/01/06 00:56:06;;;;;;;3.67;2.10;;;;;;;;;;5020707;28;20030;-91
2022/01/06 00:58:32;;;;;;;3.13;2.00;;;;;;;;;;5019926;28;20026;-92
2022/01/06 01:00:58;;;;;;;2.90;2.10;;;;;;;;;;5020647;28;20404;-92
2022/01/06 01:03:24;;;;;;;4.15;1.98;;;;;;;;;;5020716;28;20030;-93
2022/01/06 01:05:52;;;;;;;3.22;2.17;;;;;;;;;;5019715;28;20018;-93
2022/01/06 01:08:18;;;;;;;4.15;2.00;;;;;;;;;;5019415;28;20034;-93
2022/01/06 01:10:45;;;;;;;4.10;2.17;;;;;;;;;;5019569;28;20057;-93
2022/01/06 01:13:12;;;;;;;3.25;1.98;;;;;;;;;;5019444;28;20328;-94
2022/01/06 01:15:46;;;;;;;3.00;2.08;;;;;;;;;;5019457;28;20077;-92
2022/01/06 01:18:13;;;;;;;4.43;2.75;;;;;;;;;;5019739;28;20109;-92
2022/01/06 01:20:40;;;;;;;6.40;2.72;;;;;;;;;;5019436;28;20038;-92
2022/01/06 01:23:06;;;;;;;5.50;3.35;;;;;;;;;;5020348;28;20026;-92
2022/01/06 01:25:32;;;;;;;8.13;5.25;;;;;;;;;;5019318;28;20048;-92
2022/01/06 01:27:59;;;;;;;11.65;5.95;;;;;;;;;;5019295;28;20026;-91
2022/01/06 01:30:31;;;;;;;9.75;5.57;;;;;;;;;;5020011;28;20033;-91
2022/01/06 01:32:58;;;;;;;;;;;;;;;;;;5019634;28;20416;-91
2022/01/06 01:35:30;;;;;;;8.77;4.20;;;;;;;;;;5018959;28;19931;-90
2022/01/06 01:37:56;;;;;;;7.93;4.05;;;;;;;;;;5019025;28;20050;-93
2022/01/06 01:40:22;;;;;;;7.57;4.45;;;;;;;;;;5019892;28;20030;-93
2022/01/06 01:42:49;;;;;;;9.65;6.03;;;;;;;;;;5020064;28;20049;-93
2022/01/06 01:45:16;;;;;;;11.05;6.55;;;;;;;;;;5019068;28;20061;-92
2022/01/06 01:47:45;;;;;;;12.50;6.78;;;;;;;;;;5019731;28;20029;-90
2022/01/06 01:50:16;;;;;;;12.13;7.05;;;;;;;;;;5019488;28;20029;-89
2022/01/06 01:52:52;;;;;;;12.02;6.75;;;;;;;;;;5020093;28;20065;-89
2022/01/06 01:55:20;;;;;;;12.23;6.63;;;;;;;;;;5018757;28;20026;-90
2022/01/06 01:57:46;;;;;;;9.25;4.80;;;;;;;;;;5018749;28;20023;-89
2022/01/06 02:00:13;;;;;;;8.43;5.53;;;;;;;;;;5019677;28;20025;-90
2022/01/06 02:02:40;;;;;;;13.68;8.10;;;;;;;;;;5019521;28;20105;-90
2022/01/06 02:05:06;;;;;;;15.02;8.38;;;;;;;;;;5018596;28;20049;-90
2022/01/06 02:07:33;;;;;;;7.55;4.70;;;;;;;;;;5019414;28;20018;-89
2022/01/06 02:09:59;;;;;;;4.25;2.72;;;;;;;;;;5018229;28;20030;-89
2022/01/06 02:12:31;;;;;;;3.33;2.10;;;;;;;;;;5018995;28;20065;-90
2022/01/06 02:14:58;;;;;;;3.78;1.20;;;;;;;;;;5019286;28;20485;-92
2022/01/06 02:17:24;;;;;;;3.20;1.52;;;;;;;;;;5018392;28;20037;-93
2022/01/06 02:19:56;;;;;;;3.63;1.80;;;;;;;;;;5018061;28;20034;-93
2022/01/06 02:22:22;;;;;;;;;;;;;;;;;;5018461;28;20042;-92
2022/01/06 02:24:48;;;;;;;3.70;1.20;;;;;;;;;;5019069;28;20291;-92
2022/01/06 02:27:15;;;;;;;4.70;1.55;;;;;;;;;;5017952;28;20033;-93
2022/01/06 02:29:42;;;;;;;5.18;1.20;;;;;;;;;;5018154;28;20026;-93
2022/01/06 02:32:10;;;;;;;4.75;1.80;;;;;;;;;;5019056;28;20022;-92
2022/01/06 02:34:36;;;;;;;6.10;1.40;;;;;;;;;;5018134;28;20447;-94
2022/01/06 02:37:04;;;;;;;4.30;1.38;;;;;;;;;;5018016;28;20030;-92
2022/01/06 02:39:30;;;;;;;3.80;1.70;;;;;;;;;;5018819;28;20030;-92
2022/01/06 02:41:56;;;;;;;5.00;1.40;;;;;;;;;;5018687;28;20021;-93
2022/01/06 02:44:24;;;;;;;3.63;1.60;;;;;;;;;;5017801;28;20417;-93
2022/01/06 02:46:51;;;;;;;4.95;1.20;;;;;;;;;;5018843;28;20487;-93
2022/01/06 02:49:17;;;;;;;4.25;1.55;;;;;;;;;;5017659;28;20121;-94
2022/01/06 02:51:43;;;;;;;4.90;1.40;;;;;;;;;;5018602;28;20045;-92
2022/01/06 02:54:09;;;;;;;3.20;1.38;;;;;;;;;;5017749;28;20030;-93
2022/01/06 02:56:37;;;;;;;3.88;1.50;;;;;;;;;;5018515;28;20404;-93
2022/01/06 02:59:03;;;;;;;6.05;1.50;;;;;;;;;;5018777;28;20026;-93
2022/01/06 03:01:30;;;;;;;6.20;1.67;;;;;;;;;;5017623;28;20081;-91
2022/01/06 03:03:56;;;;;;;5.13;1.38;;;;;;;;;;5017486;28;20060;-92
2022/01/06 03:06:22;;;;;;;2.85;1.38;;;;;;;;;;5018459;28;20372;-93
2022/01/06 03:08:48;;;;;;;3.40;1.52;;;;;;;;;;5017632;28;20100;-95
2022/01/06 03:11:14;;;;;;;5.15;2.00;;;;;;;;;;5017417;28;20050;-93
2022/01/06 03:13:40;;;;;;;5.32;2.15;;;;;;;;;;5017194;28;20042;-90
2022/01/06 03:16:06;;;;;;;4.18;2.42;;;;;;;;;;5018339;28;20332;-92
2022/01/06 03:18:32;;;;;;;6.07;2.60;;;;;;;;;;5018162;28;20118;-93
2022/01/06 03:20:58;;;;;;;4.40;1.65;;;;;;;;;;5018066;28;20049;-92
2022/01/06 03:23:24;;;;;;;5.07;1.73;;;;;;;;;;5018292;28;20496;-92
2022/01/06 03:25:50;;;;;;;6.68;2.30;;;;;;;;;;5017947;28;20029;-93
2022/01/06 03:28:16;;;;;;;5.45;2.03;;;;;;;;;;5018045;28;20064;-92
2022/01/06 03:30:42;;;;;;;5.15;1.60;;;;;;;;;;5017057;28;20034;-92
2022/01/06 03:33:08;;;;;;;3.63;1.75;;;;;;;;;;5016838;28;20034;-92
2022/01/06 03:35:35;;;;;;;5.60;2.17;;;;;;;;;;5017931;28;20112;-92
2022/01/06 03:38:01;;;;;;;5.88;2.55;;;;;;;;;;5017127;28;20412;-91
2022/01/06 03:40:27;;;;;;;4.55;2.47;;;;;;;;;;5017459;28;20038;-92
2022/01/06 03:42:53;;;;;;;6.03;3.10;;;;;;;;;;5018011;28;20030;-91
2022/01/06 03:45:19;;;;;;;5.22;2.20;;;;;;;;;;5016755;28;20022;-91
2022/01/06 03:47:46;;;;;;;5.18;2.42;;;;;;;;;;5017832;28;20065;-92
2022/01/06 03:50:13;;;;;;;9.32;3.58;;;;;;;;;;5017815;28;20344;-92
2022/01/06 03:52:39;;;;;;;7.45;2.75;;;;;;;;;;5016850;28;20036;-91
2022/01/06 03:55:07;;;;;;;11.75;4.55;;;;;;;;;;5016624;28;20088;-90
2022/01/06 03:57:34;;;;;;;8.38;4.28;;;;;;;;;;5017943;28;20041;-91
2022/01/06 04:00:00;;;;;;;6.82;3.25;;;;;;;;;;5017735;28;20102;-91
2022/01/06 04:02:26;;;;;;;7.47;2.88;;;;;;;;;;5017571;28;20022;-92
2022/01/06 04:04:52;;;;;;;7.35;3.42;;;;;;;;;;5017527;28;20156;-91
2022/01/06 04:07:19;;;;;;;8.93;3.85;;;;;;;;;;5017785;28;20109;-92
2022/01/06 04:09:45;;;;;;;7.80;3.95;;;;;;;;;;5017568;28;20042;-90
2022/01/06 04:12:11;;;;;;;9.10;3.63;;;;;;;;;;5017461;28;20038;-90
2022/01/06 04:14:38;;;;;;;8.73;3.58;;;;;;;;;;5016522;28;20360;-91
2022/01/06 04:17:07;;;;;;;4.82;2.45;;;;;;;;;;5017697;28;20022;-90
2022/01/06 04:19:34;;;;;;;6.00;2.90;;;;;;;;;;5017897;28;20045;-90
2022/01/06 04:22:00;;;;;;;7.32;3.53;;;;;;;;;;5017481;28;20038;-91
2022/01/06 04:24:26;;;;;;;8.48;3.13;;;;;;;;;;5017412;28;20046;-91
2022/01/06 04:26:52;;;;;;;7.55;3.10;;;;;;;;;;5016691;28;20023;-91
2022/01/06 04:29:18;;;;;;;10.48;4.35;;;;;;;;;;5017397;28;20030;-90
2022/01/06 04:31:44;;;;;;;5.38;2.60;;;;;;;;;;5016523;28;20026;-90
2022/01/06 04:34:10;;;;;;;4.15;2.40;;;;;;;;;;5017445;28;20412;-92
2022/01/06 04:36:36;;;;;;;3.95;2.10;;;;;;;;;;5017573;28;20026;-92
2022/01/06 04:39:03;;;;;;;7.32;3.10;;;;;;;;;;5017611;28;20316;-92
2022/01/06 04:41:29;;;;;;;4.03;2.42;;;;;;;;;;5016369;28;20022;-90
2022/01/06 04:43:55;;;;;;;7.25;3.20;;;;;;;;;;5017528;28;20032;-91
2022/01/06 04:46:21;;;;;;;10.00;4.28;;;;;;;;;;5017430;28;20034;-94
2022/01/06 04:48:47;;;;;;;6.68;3.30;;;;;;;;;;5017625;28;20026;-93
2022/01/06 04:51:13;;;;;;;7.07;3.55;;;;;;;;;;5017066;28;20149;-93
2022/01/06 04:53:40;;;;;;;7.50;3.47;;;;;;;;;;5018995;28;20030;-94
2022/01/06 04:56:06;;;;;;;6.70;2.90;;;;;;;;;;5020815;28;20026;-93
2022/01/06 04:58:32;;;;;;;5.00;2.53;;;;;;;;;;5021071;28;20057;-91
2022/01/06 05:00:59;;;;;;;8.27;3.20;;;;;;;;;;5020879;28;20072;-94
2022/01/06 05:03:25;;;;;;;4.85;2.70;;;;;;;;;;5020521;28;20049;-92
2022/01/06 05:05:51;;;;;;;5.10;2.67;;;;;;;;;;5020840;28;20025;-92
2022/01/06 05:08:17;;;;;;;4.53;2.00;;;;;;;;;;5020663;28;20022;-93
2022/01/06 05:10:43;;;;;;;5.50;2.50;;;;;;;;;;5020173;28;20026;-93
2022/01/06 05:13:09;;;;;;;3.90;2.22;;;;;;;;;;5020438;28;20038;-93
2022/01/06 05:15:35;;;;;;;7.65;3.83;;;;;;;;;;5020694;28;20022;-93
2022/01/06 05:18:01;;;;;;;8.85;4.00;;;;;;;;;;5019662;28;20033;-93
2022/01/06 05:20:28;;;;;;;10.27;4.32;;;;;;;;;;5020269;28;20026;-94
2022/01/06 05:22:56;;;;;;;9.30;4.20;;;;;;;;;;5019711;28;20027;-95
2022/01/06 05:25:26;;;;;;;8.68;3.58;;;;;;;;;;5020077;28;20037;-93
2022/01/06 05:27:52;;;;;;;6.63;3.55;;;;;;;;;;5020145;28;20029;-93
2022/01/06 05:30:18;;;;;;;7.45;3.35;;;;;;;;;;5020323;28;20025;-93
2022/01/06 05:32:45;;;;;;;5.72;2.72;;;;;;;;;;5020174;28;20022;-93
2022/01/06 05:35:11;;;;;;;4.55;2.67;;;;;;;;;;5019882;28;20025;-93
2022/01/06 05:37:37;;;;;;;7.55;3.63;;;;;;;;;;5019995;28;20037;-91
2022/01/06 05:40:04;;;;;;;7.78;3.70;;;;;;;;;;5019987;28;20112;-92
2022/01/06 05:42:30;;;;;;;5.88;3.10;;;;;;;;;;5020127;28;20033;-92
2022/01/06 05:44:56;;;;;;;6.10;2.30;;;;;;;;;;5018832;28;20030;-91
2022/01/06 05:47:22;;;;;;;7.90;2.38;;;;;;;;;;5018604;28;20022;-91
2022/01/06 05:49:48;;;;;;;4.18;2.40;;;;;;;;;;5019749;28;20026;-92
2022/01/06 05:52:14;;;;;;;4.68;2.65;;;;;;;;;;5019762;28;20108;-92
2022/01/06 05:54:40;;;;;;;6.43;2.90;;;;;;;;;;5019751;28;20432;-92
2022/01/06 05:57:08;;;;;;;9.60;3.50;;;;;;;;;;5018774;28;20033;-92
2022/01/06 05:59:34;;;;;;;7.47;4.22;;;;;;;;;;5020118;28;20049;-91
2022/01/06 06:02:01;;;;;;;7.57;3.78;;;;;;;;;;5018646;28;20359;-93
2022/01/06 06:04:28;;;;;;;9.50;4.05;;;;;;;;;;5017900;28;20033;-94
2022/01/06 06:06:54;;;;;;;6.70;3.40;;;;;;;;;;5019460;28;20017;-92
2022/01/06 06:09:20;;;;;;;8.13;3.70;;;;;;;;;;5019720;28;20057;-92
2022/01/06 06:11:46;;;;;;;8.23;4.18;;;;;;;;;;5018620;28;20037;-92
2022/01/06 06:14:12;;;;;;;8.48;3.40;;;;;;;;;;5018919;28;20037;-94
2022/01/06 06:16:38;;;;;;;7.93;4.38;;;;;;;;;;5019151;28;20029;-93
2022/01/06 06:19:04;;;;;;;10.43;4.25;;;;;;;;;;5019272;28;20427;-93
2022/01/06 06:21:30;;;;;;;6.40;3.63;;;;;;;;;;5018412;28;20042;-93
2022/01/06 06:23:56;;;;;;;9.23;4.05;;;;;;;;;;5019005;28;20057;-94
2022/01/06 06:26:22;;;;;;;9.65;3.85;;;;;;;;;;5017990;28;20029;-94
2022/01/06 06:28:48;;;;;;;7.50;3.83;;;;;;;;;;5017353;28;20084;-92
2022/01/06 06:31:14;;;;;;;10.05;5.03;;;;;;;;;;5020242;28;20626;-92
2022/01/06 06:33:40;;;;;;;12.80;6.75;;;;;;;;;;5019060;28;20045;-92
2022/01/06 06:36:06;;;;;;;16.80;8.45;;;;;;;;;;5018909;28;20030;-93
2022/01/06 06:38:32;;;;;;;11.07;5.55;;;;;;;;;;5018159;28;20129;-92
2022/01/06 06:44:02;;;;;;;13.07;7.35;;;;;;;;;;5019309;28;20080;-93
2022/01/06 06:46:28;;;;;;;9.82;3.58;;;;;;;;;;5019053;28;20336;-92
2022/01/06 06:48:54;;;;;;;9.60;4.00;;;;;;;;;;5019088;28;20021;-91
2022/01/06 06:51:20;;;;;;;7.00;3.08;;;;;;;;;;5018126;28;20499;-92
2022/01/06 06:53:46;;;;;;;5.70;2.75;;;;;;;;;;5018365;28;20102;-91
2022/01/06 06:56:12;;;;;;;7.38;3.60;;;;;;;;;;5019008;28;20083;-93
2022/01/06 06:58:38;;;;;;;8.55;2.50;;;;;;;;;;5018918;28;20026;-92
2022/01/06 07:01:05;;;;;;;5.90;2.60;;;;;;;;;;5017526;28;20025;-92
2022/01/06 07:03:31;;;;;;;7.97;3.15;;;;;;;;;;5017628;28;20060;-92
2022/01/06 07:05:57;;;;;;;8.20;4.28;;;;;;;;;;5017725;28;20022;-91
2022/01/06 07:08:23;;;;;;;5.68;2.95;;;;;;;;;;5017989;28;20033;-91
2022/01/06 07:10:49;;;;;;;14.35;4.90;;;;;;;;;;5017824;28;20486;-92
2022/01/06 07:13:16;;;;;;;5.40;2.90;;;;;;;;;;5017525;28;20026;-93
2022/01/06 07:15:43;;;;;;;9.55;3.03;;;;;;;;;;5017833;28;20023;-91
2022/01/06 07:18:10;;;;;;;6.15;2.30;;;;;;;;;;5018307;28;20118;-93
2022/01/06 07:20:36;;;;;;;5.10;2.97;;;;;;;;;;5018305;28;20037;-94
2022/01/06 07:23:02;;;;;;;5.95;2.97;;;;;;;;;;5018295;28;20129;-93
2022/01/06 07:25:28;;;;;;;13.68;7.55;;;;;;;;;;5017286;28;20022;-92
2022/01/06 07:27:54;;;;;;;9.40;4.90;;;;;;;;;;5017988;28;20030;-92
2022/01/06 07:30:21;;;;;;;11.88;4.38;;;;;;;;;;5018008;28;20032;-93
2022/01/06 07:32:48;;;;;;;12.48;5.53;;;;;;;;;;5017844;28;20037;-92
2022/01/06 07:35:15;;;;;;;13.30;6.60;;;;;;;;;;5017924;28;20484;-94
2022/01/06 07:37:41;;;;;;;12.68;6.88;;;;;;;;;;5018001;28;20057;-90
2022/01/06 07:40:08;;;;;;;18.77;8.40;;;;;;;;;;5017027;28;20348;-91
2022/01/06 07:42:34;;;;;;;17.30;8.40;;;;;;;;;;5017119;28;20084;-92
2022/01/06 07:45:00;;;;;;;17.48;8.23;;;;;;;;;;5017412;28;20036;-93
2022/01/06 07:47:28;;;;;;;15.25;7.32;;;;;;;;;;5017068;28;20033;-92
2022/01/06 07:49:54;;;;;;;13.15;7.53;;;;;;;;;;5017114;28;20037;-94
2022/01/06 07:52:22;;;;;;;14.98;7.25;;;;;;;;;;5017774;28;20034;-92
2022/01/06 07:54:48;;;;;;;18.13;7.55;;;;;;;;;;5017735;28;20332;-92
2022/01/06 07:57:14;;;;;;;29.10;12.80;;;;;;;;;;5017647;28;20034;-92
2022/01/06 07:59:41;;;;;;;25.10;11.40;;;;;;;;;;5018346;28;20030;-92
2022/01/06 08:02:08;;;;;;;45.58;16.85;;;;;;;;;;5017893;28;20064;-92
2022/01/06 08:04:34;;;;;;;59.33;21.90;;;;;;;;;;5017880;28;20038;-90
2022/01/06 08:07:00;;;;;;;73.60;23.88;;;;;;;;;;5016867;28;20030;-90
2022/01/06 08:21:46;;;;;;;27.77;13.60;;;;;;;;;;5135993;27;20467;-92
2022/01/06 08:24:13;;;;;;;42.10;15.30;;;;;;;;;;5135787;27;20065;-92
2022/01/06 08:26:39;;;;;;;38.60;13.98;;;;;;;;;;5136297;27;20061;-91
2022/01/06 08:29:05;;;;;;;23.55;12.50;;;;;;;;;;5134852;27;20019;-92
2022/01/06 08:31:32;;;;;;;23.80;11.50;;;;;;;;;;5136107;27;20042;-92
2022/01/06 08:33:58;;;;;;;19.38;8.80;;;;;;;;;;5136055;27;20030;-93
2022/01/06 08:36:24;;;;;;;30.67;10.48;;;;;;;;;;5134720;27;20068;-89
2022/01/06 08:38:50;;;;;;;23.35;9.30;;;;;;;;;;5135765;27;20469;-90
2022/01/06 08:41:16;;;;;;;32.03;11.50;;;;;;;;;;5135828;27;20024;-90
2022/01/06 08:43:42;;;;;;;33.15;13.02;;;;;;;;;;5134803;27;20035;-89
2022/01/06 08:46:08;;;;;;;42.20;15.60;;;;;;;;;;5135978;27;20101;-91
2022/01/06 08:48:34;;;;;;;33.58;12.02;;;;;;;;;;5135747;27;20030;-91
2022/01/06 08:51:01;;;;;;;24.80;10.25;;;;;;;;;;5135310;27;20102;-90
2022/01/06 08:53:27;;;;;;;38.28;13.00;;;;;;;;;;5134016;27;20052;-90
2022/01/06 08:58:57;;;;;;;39.33;15.15;;;;;;;;;;5135637;28;20027;-91
2022/01/06 09:01:23;;;;;;;38.65;14.48;;;;;;;;;;5135171;27;20056;-91
2022/01/06 09:03:49;;;;;;;31.00;11.50;;;;;;;;;;5134959;27;20053;-92
2022/01/06 09:06:15;;;;;;;28.35;12.40;;;;;;;;;;5135046;27;20322;-90
2022/01/06 09:08:41;;;;;;;24.40;11.38;;;;;;;;;;5135529;27;20375;-90
2022/01/06 09:11:07;;;;;;;18.02;7.50;;;;;;;;;;5135022;27;20030;-92
2022/01/06 09:13:33;;;;;;;11.82;5.20;;;;;;;;;;5134851;27;20016;-91
2022/01/06 09:15:59;;;;;;;9.55;4.90;;;;;;;;;;5133911;27;20114;-93
2022/01/06 09:18:26;;;;;;;9.43;4.80;;;;;;;;;;5134392;27;20032;-91
2022/01/06 09:20:52;;;;;;;15.05;8.07;;;;;;;;;;5131497;27;20334;-91
2022/01/06 09:23:18;;;;;;;15.65;8.10;;;;;;;;;;5102353;28;20028;-92
2022/01/06 09:28:48;;;;;;;9.93;4.30;;;;;;;;;;5103297;28;20035;-91
2022/01/06 09:31:14;;;;;;;9.48;4.70;;;;;;;;;;5101243;28;20043;-90
2022/01/06 09:33:40;;;;;;;11.25;4.47;;;;;;;;;;5100431;28;20398;-91
2022/01/06 09:36:06;;;;;;;10.90;4.95;;;;;;;;;;5104321;28;20034;-91
2022/01/06 09:38:33;;;;;;;9.93;4.13;;;;;;;;;;5121166;28;20023;-91
2022/01/06 09:41:03;;;;;;;12.15;5.65;;;;;;;;;;5103674;27;20024;-92
2022/01/06 09:43:31;;;;;;;10.98;4.80;;;;;;;;;;5111076;28;20452;-91
2022/01/06 09:46:01;;;;;;;12.02;5.10;;;;;;;;;;5120240;28;20028;-90
2022/01/06 09:48:27;;;;;;;9.65;5.47;;;;;;;;;;5103136;28;20016;-90
2022/01/06 09:50:53;;;;;;;11.45;6.13;;;;;;;;;;5100463;28;20027;-90
2022/01/06 09:53:21;;;;;;;14.32;7.03;;;;;;;;;;5099208;28;20115;-89
2022/01/06 09:55:48;;;;;;;15.48;8.32;;;;;;;;;;5100104;28;20036;-93
2022/01/06 09:58:21;;;;;;;15.60;8.02;;;;;;;;;;5099152;28;20024;-87
2022/01/06 10:00:47;;;;;;;15.75;6.82;;;;;;;;;;5100191;28;20129;-87
2022/01/06 10:03:13;;;;;;;13.75;7.60;;;;;;;;;;5100054;28;20394;-89
2022/01/06 10:05:43;;;;;;;15.93;9.15;;;;;;;;;;5099727;28;20058;-87
2022/01/06 10:08:10;;;;;;;18.02;9.60;;;;;;;;;;5099831;28;20048;-88
2022/01/06 10:10:36;;;;;;;13.52;6.93;;;;;;;;;;5098706;28;20027;-87
2022/01/06 10:13:07;;;;;;;12.20;6.88;;;;;;;;;;5098805;28;20066;-87
2022/01/06 10:15:34;;;;;;;9.18;5.28;;;;;;;;;;5099637;28;20028;-87
2022/01/06 10:18:10;;;;;;;15.82;4.78;;;;;;;;;;5104099;28;20339;-87
2022/01/06 10:20:36;;;;;;;13.57;5.35;;;;;;;;;;5106375;28;20052;-86
2022/01/06 10:23:02;;;;;;;13.93;6.75;;;;;;;;;;5104788;28;20023;-87
2022/01/06 10:28:36;;;;;;;22.08;10.55;;;;;;;;;;5102882;28;20035;-92
2022/01/06 10:31:05;;;;;;;19.25;7.90;;;;;;;;;;5119420;28;20490;-87
2022/01/06 10:33:36;;;;;;;30.58;14.10;;;;;;;;;;5098491;28;20465;-88
2022/01/06 10:36:08;;;;;;;25.48;13.23;;;;;;;;;;5099258;28;20016;-88
2022/01/06 10:38:35;;;;;;;17.27;8.75;;;;;;;;;;5099639;28;20024;-88
2022/01/06 10:41:11;;;;;;;16.55;9.43;;;;;;;;;;5099205;28;20095;-88
2022/01/06 10:43:37;;;;;;;21.15;11.00;;;;;;;;;;5103154;28;20052;-88
2022/01/06 10:46:03;;;;;;;36.00;14.60;;;;;;;;;;5108752;28;20065;-87
2022/01/06 10:48:30;;;;;;;41.17;17.00;;;;;;;;;;5099103;28;20414;-88
2022/01/06 10:50:59;;;;;;;47.85;16.30;;;;;;;;;;5102594;28;20416;-87
2022/01/06 10:53:25;;;;;;;54.65;19.48;;;;;;;;;;5110399;28;20024;-87
2022/01/06 10:55:52;;;;;;;32.03;15.82;;;;;;;;;;5100305;28;20028;-87
2022/01/06 10:58:20;;;;;;;38.58;16.17;;;;;;;;;;5106807;28;20048;-87
2022/01/06 11:00:52;;;;;;;43.97;17.60;;;;;;;;;;5098853;28;20421;-87
2022/01/06 11:03:22;;;;;;;47.25;18.77;;;;;;;;;;5102790;28;20115;-87
2022/01/06 11:05:58;;;;;;;52.97;20.13;;;;;;;;;;5111064;27;20038;-87
2022/01/06 11:08:28;;;;;;;32.83;14.52;;;;;;;;;;5109265;28;20024;-88
2022/01/06 11:13:51;;;;;;;34.40;14.52;;;;;;;;;;5117414;28;20054;-85
2022/01/06 11:16:18;;;;;;;43.55;18.55;;;;;;;;;;5116772;28;20326;-90
2022/01/06 11:18:52;;;;;;;46.65;19.50;;;;;;;;;;5116650;28;20401;-88
2022/01/06 11:21:22;;;;;;;30.55;15.82;;;;;;;;;;5082454;28;20053;-88
2022/01/06 11:23:48;;;;;;;52.05;22.65;;;;;;;;;;5076662;28;20082;-87
2022/01/06 11:26:19;;;;;;;54.72;27.25;;;;;;;;;;5076541;28;20032;-87
2022/01/06 11:28:54;;;;;;;39.05;20.23;;;;;;;;;;5076636;28;20025;-88
2022/01/06 11:31:21;;;;;;;31.15;16.52;;;;;;;;;;5076324;28;20037;-87
2022/01/06 11:33:49;;;;;;;36.75;17.52;;;;;;;;;;5076465;28;20034;-89
2022/01/06 11:36:25;;;;;;;87.93;51.38;;;;;;;;;;5076417;28;20059;-87
2022/01/06 11:38:51;;;;;;;61.08;30.92;;;;;;;;;;5076257;28;20025;-87
2022/01/06 11:41:18;;;;;;;59.83;27.40;;;;;;;;;;5076072;28;20454;-88
2022/01/06 11:43:45;;;;;;;33.42;18.80;;;;;;;;;;5076788;28;20048;-87
2022/01/06 11:46:12;;;;;;;33.13;16.23;;;;;;;;;;5091602;28;20040;-87
2022/01/06 11:48:48;;;;;;;26.23;15.50;;;;;;;;;;5088221;28;20024;-87
2022/01/06 11:51:26;;;;;;;30.38;16.25;;;;;;;;;;5081814;28;20062;-87
2022/01/06 11:53:52;;;;;;;43.08;20.75;;;;;;;;;;5093288;27;20028;-88
2022/01/06 11:56:21;;;;;;;25.60;12.45;;;;;;;;;;5140688;27;20027;-87
2022/01/06 11:59:04;;;;;;;150.13;63.80;;;;;;;;;;5141308;27;20140;-88
2022/01/06 12:01:44;;;;;;;249.40;110.20;;;;;;;;;;5159944;27;20019;-88
2022/01/06 12:04:15;;;;;;;39.40;19.60;;;;;;;;;;5140836;27;20027;-86
2022/01/06 12:06:41;;;;;;;50.70;22.02;;;;;;;;;;5159578;27;20155;-87
2022/01/06 12:09:28;;;;;;;666.38;335.65;;;;;;;;;;5159199;27;20442;-87
2022/01/06 12:12:04;;;;;;;78.40;37.13;;;;;;;;;;5158833;27;20023;-87
2022/01/06 12:14:30;;;;;;;53.15;24.33;;;;;;;;;;5140426;27;20482;-85
2022/01/06 12:17:03;;;;;;;52.80;23.17;;;;;;;;;;5159439;27;20023;-87
2022/01/06 12:19:29;;;;;;;105.10;39.65;;;;;;;;;;5140489;27;20487;-87
2022/01/06 12:21:55;;;;;;;108.25;41.95;;;;;;;;;;5159103;27;20062;-86
2022/01/06 12:24:21;;;;;;;101.93;41.60;;;;;;;;;;5159155;27;20399;-86
2022/01/06 12:26:47;;;;;;;58.35;27.98;;;;;;;;;;5159148;27;20030;-87
2022/01/06 12:29:15;;;;;;;198.70;92.75;;;;;;;;;;5159200;27;20083;-87
2022/01/06 12:31:42;;;;;;;52.78;26.25;;;;;;;;;;5159004;27;20018;-86
2022/01/06 12:34:10;;;;;;;48.70;25.20;;;;;;;;;;5159022;27;20034;-87
2022/01/06 12:36:37;;;;;;;41.05;22.00;;;;;;;;;;5159256;27;20027;-87
2022/01/06 12:39:22;;;;;;;46.78;21.48;;;;;;;;;;5140849;27;20018;-87
2022/01/06 12:41:51;;;;;;;59.08;25.70;;;;;;;;;;5159176;27;20015;-87
2022/01/06 12:44:19;;;;;;;207.88;94.93;;;;;;;;;;5140134;27;20031;-87
2022/01/06 12:46:45;;;;;;;49.85;22.55;;;;;;;;;;5158971;27;20052;-87
2022/01/06 12:49:12;;;;;;;42.88;18.73;;;;;;;;;;5140829;27;20123;-88
2022/01/06 12:51:43;;;;;;;102.15;40.75;;;;;;;;;;5159059;27;20487;-88
2022/01/06 12:54:19;;;;;;;181.68;86.97;;;;;;;;;;5155941;27;20059;-87
2022/01/06 12:56:56;;;;;;;80.75;32.90;;;;;;;;;;5156322;27;20023;-88
2022/01/06 12:59:27;;;;;;;73.20;29.85;;;;;;;;;;5162821;27;20015;-87
2022/01/06 13:01:58;;;;;;;75.15;30.60;;;;;;;;;;5163051;27;20469;-87
2022/01/06 13:04:28;;;;;;;23.33;13.00;;;;;;;;;;5162929;27;20052;-87
2022/01/06 13:06:56;;;;;;;34.08;14.82;;;;;;;;;;5162625;27;20031;-88
2022/01/06 13:09:23;;;;;;;28.52;13.80;;;;;;;;;;5144470;27;20091;-87
2022/01/06 13:11:53;;;;;;;31.00;15.38;;;;;;;;;;5144345;27;20046;-87
2022/01/06 13:14:31;;;;;;;16.05;8.82;;;;;;;;;;5143979;27;20027;-88
2022/01/06 13:17:08;;;;;;;90.30;39.58;;;;;;;;;;5162621;27;20404;-88
2022/01/06 13:19:35;;;;;;;28.52;15.23;;;;;;;;;;5162412;27;20046;-87
2022/01/06 13:22:05;;;;;;;38.83;20.95;;;;;;;;;;5162535;27;20034;-87
2022/01/06 13:24:32;;;;;;;26.05;13.85;;;;;;;;;;5162329;27;20061;-88
2022/01/06 13:26:59;;;;;;;27.77;15.43;;;;;;;;;;5162529;27;20030;-88
2022/01/06 13:29:30;;;;;;;32.20;16.88;;;;;;;;;;5162385;27;20102;-87
2022/01/06 13:32:07;;;;;;;25.60;13.40;;;;;;;;;;5143945;27;20027;-87
2022/01/06 13:34:33;;;;;;;23.08;13.05;;;;;;;;;;5143768;27;20034;-88
2022/01/06 13:37:02;;;;;;;26.15;14.48;;;;;;;;;;5161650;27;20026;-87
2022/01/06 13:39:39;;;;;;;29.17;17.08;;;;;;;;;;5144199;27;20046;-87
2022/01/06 13:42:06;;;;;;;67.68;28.75;;;;;;;;;;5162159;27;20106;-86
2022/01/06 13:44:33;;;;;;;29.80;17.58;;;;;;;;;;5142799;27;20042;-87
2022/01/06 13:47:18;;;;;;;79.28;38.25;;;;;;;;;;5161820;27;20027;-87
2022/01/06 13:52:29;;;;;;;29.27;16.75;;;;;;;;;;5162033;27;20033;-87
2022/01/06 13:54:56;;;;;;;27.60;15.73;;;;;;;;;;5161861;27;20031;-86
2022/01/06 13:57:22;;;;;;;38.60;20.73;;;;;;;;;;5161646;27;20022;-87
2022/01/06 13:59:49;;;;;;;36.95;19.15;;;;;;;;;;5143134;27;20030;-87
2022/01/06 14:02:15;;;;;;;36.53;18.70;;;;;;;;;;5143502;27;20037;-86
2022/01/06 14:04:44;;;;;;;28.42;15.68;;;;;;;;;;5143327;27;20115;-86
2022/01/06 14:07:10;;;;;;;29.73;16.42;;;;;;;;;;5161703;27;20148;-87
2022/01/06 14:09:37;;;;;;;34.05;19.13;;;;;;;;;;5161233;27;20033;-87
2022/01/06 14:12:03;;;;;;;34.40;18.48;;;;;;;;;;5161432;27;20140;-86
2022/01/06 14:14:30;;;;;;;37.70;19.48;;;;;;;;;;5161380;27;20026;-87
2022/01/06 14:16:56;;;;;;;49.90;23.65;;;;;;;;;;5160696;27;20047;-86
2022/01/06 14:19:22;;;;;;;41.90;20.38;;;;;;;;;;5160462;27;20022;-88
2022/01/06 14:21:48;;;;;;;42.63;21.25;;;;;;;;;;5160931;27;20038;-87
2022/01/06 14:24:14;;;;;;;49.20;25.75;;;;;;;;;;5152761;27;20068;-88
2022/01/06 14:26:40;;;;;;;35.92;21.45;;;;;;;;;;5161201;27;20053;-88
2022/01/06 14:29:06;;;;;;;31.20;16.38;;;;;;;;;;5142650;27;20019;-87
2022/01/06 14:31:32;;;;;;;35.92;18.08;;;;;;;;;;5161218;27;20454;-88
2022/01/06 14:33:59;;;;;;;32.25;16.58;;;;;;;;;;5142694;27;20027;-87
2022/01/06 14:36:25;;;;;;;35.33;18.52;;;;;;;;;;5160981;27;20027;-87
2022/01/06 14:38:51;;;;;;;61.53;30.20;;;;;;;;;;5160970;27;20042;-88
2022/01/06 14:41:18;;;;;;;51.05;25.05;;;;;;;;;;5160964;27;20144;-87
2022/01/06 14:43:45;;;;;;;55.85;28.58;;;;;;;;;;5142565;27;20064;-88
2022/01/06 14:46:16;;;;;;;59.40;28.48;;;;;;;;;;5160631;27;20022;-88
2022/01/06 14:48:43;;;;;;;33.53;19.08;;;;;;;;;;5142711;27;20030;-88
2022/01/06 14:51:09;;;;;;;27.33;15.85;;;;;;;;;;5160738;27;20041;-87
2022/01/06 14:53:35;;;;;;;48.22;24.25;;;;;;;;;;5161044;27;20015;-86
2022/01/06 14:56:02;;;;;;;30.35;16.10;;;;;;;;;;5160946;27;20039;-88
2022/01/06 14:58:28;;;;;;;31.50;15.88;;;;;;;;;;5160660;27;20034;-88
2022/01/06 15:00:54;;;;;;;37.67;18.65;;;;;;;;;;5160398;27;20027;-88
2022/01/06 15:03:22;;;;;;;37.45;18.92;;;;;;;;;;5160431;27;20467;-88
2022/01/06 15:05:48;;;;;;;45.35;24.42;;;;;;;;;;5142010;27;20031;-87
2022/01/06 15:08:15;;;;;;;24.08;14.15;;;;;;;;;;5152066;27;20293;-88
2022/01/06 15:10:41;;;;;;;28.92;16.23;;;;;;;;;;5160301;27;20140;-87